Little Wash, Pennsylvania
Current Conditions -  °F | °C
As of 8:29 AM on Friday 19 Dec 2014 (Local Time) from KCXY Reporting Station
Overcast Overcast  
Wind Chill: 28°   Ceiling: 3000
Heat Index: 35°   Visibility: 10mi
Dew Point: 24°   Wind: 9mph
Humidity: 64%   Direction: 290°WNW
Pressure: 30.11"   Gusts: NA
Location:  40.183°N, 77.4166°W
Report Text: KCXY 191329Z 29008KT 10SM OVC030 02/M04 A3011 RMK AO2 T00171044
Loading
Personal Weather Stations






























Interactive Weather Map New forecast layout! Learn more

10-Day Weather Forecast

Advertisements
Track Severe Weather on mobile